createdAt,value
2023-01-29T00:00:18.946Z,84.53
2023-01-29T00:02:48.014Z,84.80
2023-01-29T00:05:27.546Z,84.57
2023-01-29T00:07:57.621Z,84.90
2023-01-29T00:10:26.188Z,85.08
2023-01-29T00:12:58.456Z,85.17
2023-01-29T00:15:26.810Z,85.24
2023-01-29T00:17:55.125Z,84.99
2023-01-29T00:20:23.467Z,84.41
2023-01-29T00:22:51.835Z,84.22
2023-01-29T00:25:20.205Z,84.50
2023-01-29T00:27:48.615Z,84.14
2023-01-29T00:30:19.915Z,83.47
2023-01-29T00:32:48.739Z,82.94
2023-01-29T00:35:17.305Z,82.12
2023-01-29T00:37:45.683Z,82.19
2023-01-29T00:40:15.131Z,80.27
2023-01-29T00:43:03.128Z,80.94
2023-01-29T00:45:33.908Z,80.08
2023-01-29T00:48:02.329Z,79.31
2023-01-29T00:50:31.494Z,79.06
2023-01-29T00:53:00.046Z,78.68
2023-01-29T00:55:31.182Z,78.71
2023-01-29T00:57:59.749Z,77.71
2023-01-29T01:00:28.127Z,77.55
2023-01-29T01:03:05.799Z,77.80
2023-01-29T01:05:34.233Z,77.37
2023-01-29T01:08:02.750Z,77.89
2023-01-29T01:10:32.658Z,77.82
2023-01-29T01:13:02.599Z,77.92
2023-01-29T01:15:32.961Z,78.15
2023-01-29T01:18:03.394Z,77.96
2023-01-29T01:20:33.258Z,77.48
2023-01-29T01:23:02.156Z,77.88
2023-01-29T01:25:30.522Z,78.09
2023-01-29T01:28:01.614Z,78.23
2023-01-29T01:30:30.057Z,78.16
2023-01-29T01:32:58.412Z,78.52
2023-01-29T01:35:28.383Z,78.71
2023-01-29T01:37:56.691Z,79.02
2023-01-29T01:40:26.728Z,79.15
2023-01-29T01:42:57.110Z,78.03
2023-01-29T01:45:29.791Z,77.59
2023-01-29T01:48:01.457Z,77.83
2023-01-29T01:50:34.822Z,78.34
2023-01-29T01:53:07.043Z,78.63
2023-01-29T01:55:39.191Z,78.28
2023-01-29T01:58:11.760Z,78.59
2023-01-29T02:00:40.830Z,78.17
2023-01-29T02:03:27.993Z,78.09
2023-01-29T02:06:17.088Z,78.14
2023-01-29T02:09:10.066Z,78.29
2023-01-29T02:11:39.266Z,78.32
2023-01-29T02:14:09.031Z,78.47
2023-01-29T02:16:37.977Z,78.11
2023-01-29T02:19:10.119Z,77.90
2023-01-29T02:21:54.305Z,77.54
2023-01-29T02:25:10.052Z,77.95
2023-01-29T02:28:29.494Z,78.39
2023-01-29T02:31:03.307Z,78.83
2023-01-29T02:33:37.451Z,78.37
2023-01-29T02:36:14.530Z,77.85
2023-01-29T02:38:47.317Z,77.33
2023-01-29T02:41:18.018Z,76.54
2023-01-29T02:43:49.816Z,77.03
2023-01-29T02:46:31.502Z,77.33
2023-01-29T02:49:03.347Z,76.96
2023-01-29T02:51:35.681Z,77.45
2023-01-29T02:54:08.672Z,77.73
2023-01-29T02:56:40.352Z,77.39
2023-01-29T02:59:13.406Z,77.42
2023-01-29T03:01:46.783Z,77.11
2023-01-29T03:04:19.903Z,76.72
2023-01-29T03:06:51.317Z,76.87
2023-01-29T03:09:23.694Z,76.98
2023-01-29T03:12:20.329Z,77.06
2023-01-29T03:15:10.381Z,76.29
2023-01-29T03:17:45.125Z,76.32
2023-01-29T03:20:18.000Z,76.60
2023-01-29T03:22:52.167Z,75.93
2023-01-29T03:25:40.207Z,76.42
2023-01-29T03:28:26.665Z,75.81
2023-01-29T03:31:16.109Z,76.03
2023-01-29T03:33:52.059Z,75.88
2023-01-29T03:36:23.710Z,75.69
2023-01-29T03:38:52.433Z,76.21
2023-01-29T03:41:28.079Z,75.69
2023-01-29T03:44:03.829Z,75.90
2023-01-29T03:46:36.881Z,75.76
2023-01-29T03:49:10.839Z,75.57
2023-01-29T03:51:45.791Z,74.96
2023-01-29T03:54:18.070Z,75.18
2023-01-29T03:56:56.511Z,75.39
2023-01-29T03:59:34.825Z,75.25
2023-01-29T04:02:39.870Z,74.63
2023-01-29T04:05:15.310Z,74.20
2023-01-29T04:08:00.687Z,73.89
2023-01-29T04:10:50.356Z,74.07
2023-01-29T04:13:19.706Z,74.00
2023-01-29T04:15:49.611Z,73.82
2023-01-29T04:18:21.190Z,74.06
2023-01-29T04:21:16.339Z,74.05
2023-01-29T04:23:45.426Z,74.07
2023-01-29T04:26:26.646Z,73.94
2023-01-29T04:29:02.942Z,73.89
2023-01-29T04:31:36.380Z,74.31
2023-01-29T04:34:14.459Z,73.68
2023-01-29T04:36:52.991Z,73.61
2023-01-29T04:39:26.618Z,73.96
2023-01-29T04:41:57.116Z,73.98
2023-01-29T04:44:33.390Z,73.99
2023-01-29T04:47:07.304Z,73.94
2023-01-29T04:49:42.556Z,74.52
2023-01-29T04:52:17.445Z,74.41
2023-01-29T04:54:50.149Z,73.55
2023-01-29T04:57:23.330Z,74.00
2023-01-29T04:59:57.175Z,73.44
2023-01-29T05:02:26.294Z,74.03
2023-01-29T05:04:56.583Z,74.14
2023-01-29T05:07:27.777Z,73.82
2023-01-29T05:09:56.352Z,74.32
2023-01-29T05:12:26.613Z,73.57
2023-01-29T05:14:55.320Z,73.86
2023-01-29T05:17:29.672Z,73.43
2023-01-29T05:20:00.810Z,74.02
2023-01-29T05:22:29.501Z,74.39
2023-01-29T05:24:59.874Z,74.76
2023-01-29T05:27:51.401Z,74.51
2023-01-29T05:30:25.837Z,74.72
2023-01-29T05:32:54.226Z,74.67
2023-01-29T05:35:24.031Z,74.81
2023-01-29T05:37:52.440Z,75.06
2023-01-29T05:40:20.978Z,74.91
2023-01-29T05:42:49.455Z,75.04
2023-01-29T05:45:21.163Z,75.52
2023-01-29T05:47:57.516Z,75.29
2023-01-29T05:50:31.316Z,75.33
2023-01-29T05:53:01.404Z,75.17
2023-01-29T05:55:30.648Z,75.52
2023-01-29T05:58:00.717Z,75.75
2023-01-29T06:00:29.095Z,75.28
2023-01-29T06:02:57.659Z,75.87
2023-01-29T06:05:27.856Z,76.10
2023-01-29T06:07:56.420Z,76.53
2023-01-29T06:10:25.192Z,76.45
2023-01-29T06:12:55.304Z,76.40
2023-01-29T06:15:25.018Z,76.16
2023-01-29T06:17:55.075Z,76.03
2023-01-29T06:20:26.081Z,75.66
2023-01-29T06:23:02.777Z,76.12
2023-01-29T06:25:31.243Z,74.98
2023-01-29T06:28:00.684Z,74.94
2023-01-29T06:30:29.433Z,75.20
2023-01-29T06:32:59.034Z,74.77
2023-01-29T06:35:27.602Z,74.97
2023-01-29T06:37:59.311Z,74.83
2023-01-29T06:40:29.248Z,74.70
2023-01-29T06:42:57.730Z,74.33
2023-01-29T06:45:26.296Z,74.03
2023-01-29T06:47:54.763Z,73.72
2023-01-29T06:50:23.288Z,73.45
2023-01-29T06:52:51.774Z,73.28
2023-01-29T06:55:22.774Z,72.57
2023-01-29T06:57:52.675Z,72.51
2023-01-29T07:00:24.275Z,72.05
2023-01-29T07:02:53.107Z,72.58
2023-01-29T07:05:22.547Z,71.66
2023-01-29T07:07:54.277Z,70.32
2023-01-29T07:10:22.987Z,70.09
2023-01-29T07:12:54.625Z,69.37
2023-01-29T07:15:23.156Z,69.03
2023-01-29T07:17:58.713Z,69.48
2023-01-29T07:20:27.714Z,69.46
2023-01-29T07:22:56.385Z,69.64
2023-01-29T07:25:27.761Z,70.10
2023-01-29T07:27:59.923Z,70.18
2023-01-29T07:30:29.412Z,70.44
2023-01-29T07:32:57.868Z,69.68
2023-01-29T07:35:28.460Z,69.58
2023-01-29T07:37:56.940Z,70.38
2023-01-29T07:40:25.432Z,69.59
2023-01-29T07:43:00.951Z,69.80
2023-01-29T07:45:52.627Z,68.95
2023-01-29T07:48:26.281Z,69.49
2023-01-29T07:50:56.275Z,69.20
2023-01-29T07:53:24.681Z,69.04
2023-01-29T07:55:58.392Z,68.59
2023-01-29T07:58:28.434Z,68.73
2023-01-29T08:00:56.862Z,68.82
2023-01-29T08:03:27.691Z,69.08
2023-01-29T08:05:56.062Z,68.89
2023-01-29T08:08:26.549Z,68.41
2023-01-29T08:10:54.908Z,68.40
2023-01-29T08:13:26.158Z,67.88
2023-01-29T08:15:59.996Z,67.93
2023-01-29T08:18:29.319Z,67.67
2023-01-29T08:21:01.474Z,67.08
2023-01-29T08:23:33.085Z,67.53
2023-01-29T08:26:03.277Z,66.97
2023-01-29T08:28:35.315Z,67.48
2023-01-29T08:31:14.766Z,67.34
2023-01-29T08:33:43.204Z,67.26
2023-01-29T08:36:11.948Z,67.10
2023-01-29T08:38:42.937Z,67.05
2023-01-29T08:41:11.408Z,66.84
2023-01-29T08:43:40.662Z,66.49
2023-01-29T08:46:15.885Z,66.62
2023-01-29T08:48:44.402Z,66.29
2023-01-29T08:51:15.113Z,66.35
2023-01-29T08:53:45.888Z,66.62
2023-01-29T08:56:16.405Z,66.90
2023-01-29T08:58:46.746Z,66.37
2023-01-29T09:01:16.844Z,66.17
2023-01-29T09:03:46.547Z,66.04
2023-01-29T09:06:16.110Z,66.98
2023-01-29T09:08:50.081Z,67.15
2023-01-29T09:11:18.778Z,67.20
2023-01-29T09:13:47.142Z,66.82
2023-01-29T09:16:16.930Z,66.42
2023-01-29T09:18:45.294Z,66.72
2023-01-29T09:21:14.929Z,66.43
2023-01-29T09:23:45.280Z,66.23
2023-01-29T09:26:13.818Z,65.63
2023-01-29T09:28:45.285Z,65.69
2023-01-29T09:31:13.827Z,64.79
2023-01-29T09:33:46.273Z,64.89
2023-01-29T09:36:14.820Z,65.18
2023-01-29T09:38:46.526Z,65.17
2023-01-29T09:41:28.867Z,65.39
2023-01-29T09:44:00.607Z,65.41
2023-01-29T09:46:39.017Z,65.87
2023-01-29T09:49:16.357Z,65.71
2023-01-29T09:51:51.856Z,66.10
2023-01-29T09:54:24.833Z,66.47
2023-01-29T09:56:56.992Z,65.95
2023-01-29T09:59:28.496Z,66.56
2023-01-29T10:02:05.165Z,66.37
2023-01-29T10:04:54.255Z,65.76
2023-01-29T10:07:32.704Z,66.10
2023-01-29T10:10:20.873Z,66.77
2023-01-29T10:13:04.701Z,66.15
2023-01-29T10:15:40.386Z,65.94
2023-01-29T10:18:33.274Z,66.31
2023-01-29T10:21:14.351Z,65.36
2023-01-29T10:23:47.379Z,65.16
2023-01-29T10:26:20.608Z,65.37
2023-01-29T10:28:51.072Z,66.05
2023-01-29T10:31:22.321Z,65.44
2023-01-29T10:34:02.478Z,65.35
2023-01-29T10:36:39.192Z,65.11
2023-01-29T10:39:10.731Z,64.47
2023-01-29T10:41:48.786Z,63.49
2023-01-29T10:44:25.753Z,63.38
2023-01-29T10:47:09.147Z,63.32
2023-01-29T10:49:56.165Z,64.09
2023-01-29T10:52:36.607Z,64.30
2023-01-29T10:55:18.155Z,64.43
2023-01-29T10:57:58.328Z,64.04
2023-01-29T11:00:28.726Z,63.78
2023-01-29T11:02:59.972Z,64.22
2023-01-29T11:05:33.525Z,64.49
2023-01-29T11:08:06.814Z,64.49
2023-01-29T11:10:41.978Z,64.13
2023-01-29T11:13:16.246Z,64.08
2023-01-29T11:15:45.183Z,63.64
2023-01-29T11:18:15.833Z,64.50
2023-01-29T11:20:45.372Z,63.28
2023-01-29T11:23:29.900Z,63.87
2023-01-29T11:26:01.566Z,64.23
2023-01-29T11:28:40.751Z,64.17
2023-01-29T11:31:26.233Z,64.62
2023-01-29T11:34:02.159Z,63.56
2023-01-29T11:36:40.378Z,63.81
2023-01-29T11:39:21.836Z,64.07
2023-01-29T11:41:55.329Z,64.43
2023-01-29T11:44:30.984Z,64.81
2023-01-29T11:47:10.291Z,64.88
2023-01-29T11:49:39.852Z,64.65
2023-01-29T11:52:10.781Z,64.85
2023-01-29T11:54:45.488Z,64.60
2023-01-29T11:57:35.457Z,65.20
2023-01-29T12:00:07.568Z,65.37
2023-01-29T12:02:40.187Z,65.72
2023-01-29T12:05:16.615Z,66.52
2023-01-29T12:07:46.893Z,66.57
2023-01-29T12:10:35.617Z,66.76
2023-01-29T12:13:26.451Z,67.05
2023-01-29T12:16:12.218Z,67.66
2023-01-29T12:18:45.138Z,67.70
2023-01-29T12:21:19.066Z,67.75
2023-01-29T12:23:53.896Z,67.93
2023-01-29T12:26:27.223Z,68.58
2023-01-29T12:29:07.281Z,68.93
2023-01-29T12:31:44.555Z,69.24
2023-01-29T12:34:17.811Z,68.97
2023-01-29T12:36:53.310Z,69.35
2023-01-29T12:39:24.149Z,69.25
2023-01-29T12:41:59.477Z,69.70
2023-01-29T12:44:34.709Z,70.08
2023-01-29T12:47:07.012Z,70.43
2023-01-29T12:49:39.030Z,71.20
2023-01-29T12:52:13.546Z,70.79
2023-01-29T12:54:49.204Z,70.76
2023-01-29T12:57:23.519Z,71.01
2023-01-29T12:59:54.957Z,71.83
2023-01-29T13:02:33.791Z,71.48
2023-01-29T13:05:07.305Z,71.66
2023-01-29T13:07:40.223Z,72.18
2023-01-29T13:10:13.742Z,72.33
2023-01-29T13:12:57.321Z,71.94
2023-01-29T13:15:32.715Z,71.96
2023-01-29T13:18:21.972Z,72.20
2023-01-29T13:20:51.120Z,72.95
2023-01-29T13:23:23.001Z,72.62
2023-01-29T13:25:52.892Z,73.09
2023-01-29T13:28:24.926Z,72.80
2023-01-29T13:31:28.856Z,72.72
2023-01-29T13:34:04.886Z,72.93
2023-01-29T13:36:33.784Z,73.09
2023-01-29T13:39:04.919Z,73.51
2023-01-29T13:41:35.229Z,73.41
2023-01-29T13:44:07.527Z,73.16
2023-01-29T13:46:36.073Z,73.21
2023-01-29T13:49:05.741Z,73.83
2023-01-29T13:51:37.149Z,73.82
2023-01-29T13:54:07.755Z,74.04
2023-01-29T13:56:51.700Z,74.07
2023-01-29T13:59:25.952Z,74.71
2023-01-29T14:02:05.541Z,74.38
2023-01-29T14:04:34.318Z,73.98
2023-01-29T14:07:05.500Z,73.67
2023-01-29T14:10:03.762Z,74.17
2023-01-29T14:12:55.742Z,73.69
2023-01-29T14:15:34.196Z,74.27
2023-01-29T14:18:18.576Z,74.21
2023-01-29T14:20:57.850Z,74.16
2023-01-29T14:23:40.596Z,73.81
2023-01-29T14:26:23.318Z,74.07
2023-01-29T14:28:59.244Z,74.26
2023-01-29T14:31:46.521Z,74.38
2023-01-29T14:34:28.027Z,74.37
2023-01-29T14:36:58.356Z,74.65
2023-01-29T14:39:34.498Z,74.55
2023-01-29T14:42:05.506Z,74.25
2023-01-29T14:45:08.361Z,74.43
2023-01-29T14:47:56.585Z,74.19
2023-01-29T14:50:52.470Z,73.82
2023-01-29T14:53:31.519Z,73.60
2023-01-29T14:56:03.479Z,73.89
2023-01-29T14:58:39.855Z,74.27
2023-01-29T15:01:18.246Z,74.26
2023-01-29T15:03:50.349Z,75.03
2023-01-29T15:06:22.943Z,75.18
2023-01-29T15:08:56.618Z,76.00
2023-01-29T15:11:37.783Z,76.26
2023-01-29T15:14:19.006Z,77.01
2023-01-29T15:16:52.435Z,78.09
2023-01-29T15:19:27.238Z,78.22
2023-01-29T15:22:06.758Z,78.62
2023-01-29T15:24:35.259Z,79.25
2023-01-29T15:27:03.841Z,79.23
2023-01-29T15:29:32.407Z,79.84
2023-01-29T15:32:00.846Z,80.76
2023-01-29T15:34:30.846Z,81.22
2023-01-29T15:36:59.216Z,81.46
2023-01-29T15:39:28.565Z,81.41
2023-01-29T15:42:13.772Z,81.72
2023-01-29T15:44:47.207Z,81.40
2023-01-29T15:47:16.277Z,81.91
2023-01-29T15:49:49.323Z,81.00
2023-01-29T15:52:19.968Z,80.21
2023-01-29T15:54:48.685Z,80.14
2023-01-29T15:57:22.102Z,79.91
2023-01-29T15:59:52.176Z,79.43
2023-01-29T16:02:38.133Z,80.55
2023-01-29T16:05:12.022Z,80.59
2023-01-29T16:07:40.900Z,80.78
2023-01-29T16:10:16.646Z,79.95
2023-01-29T16:12:47.433Z,79.49
2023-01-29T16:15:28.382Z,79.89
2023-01-29T16:17:57.415Z,80.13
2023-01-29T16:20:39.896Z,79.79
2023-01-29T16:23:08.805Z,79.65
2023-01-29T16:25:39.888Z,79.27
2023-01-29T16:28:11.071Z,79.53
2023-01-29T16:30:40.356Z,79.19
2023-01-29T16:33:14.122Z,79.10
2023-01-29T16:35:44.330Z,79.09
2023-01-29T16:38:28.714Z,78.12
2023-01-29T16:41:08.964Z,78.34
2023-01-29T16:43:58.423Z,78.16
2023-01-29T16:46:33.491Z,78.67
2023-01-29T16:49:02.428Z,77.95
2023-01-29T16:51:37.817Z,77.98
2023-01-29T16:54:09.554Z,78.50
2023-01-29T16:56:40.756Z,78.50
2023-01-29T16:59:17.906Z,77.99
2023-01-29T17:01:46.463Z,78.00
2023-01-29T17:04:15.905Z,77.59
2023-01-29T17:06:47.314Z,77.84
2023-01-29T17:09:22.725Z,77.52
2023-01-29T17:11:56.113Z,77.92
2023-01-29T17:14:26.135Z,77.67
2023-01-29T17:16:56.432Z,78.16
2023-01-29T17:19:26.039Z,76.77
2023-01-29T17:21:56.863Z,77.23
2023-01-29T17:24:28.485Z,77.36
2023-01-29T17:26:57.600Z,77.22
2023-01-29T17:29:28.150Z,76.97
2023-01-29T17:31:56.795Z,76.90
2023-01-29T17:34:25.561Z,76.78
2023-01-29T17:36:57.336Z,76.98
2023-01-29T17:39:26.254Z,77.16
2023-01-29T17:41:58.221Z,77.04
2023-01-29T17:44:27.282Z,77.57
2023-01-29T17:46:55.731Z,77.40
2023-01-29T17:49:26.199Z,77.76
2023-01-29T17:51:57.149Z,77.82
2023-01-29T17:54:26.785Z,77.15
2023-01-29T17:56:55.582Z,77.78
2023-01-29T17:59:25.882Z,77.33
2023-01-29T18:01:54.722Z,77.57
2023-01-29T18:04:23.427Z,77.44
2023-01-29T18:06:52.558Z,77.76
2023-01-29T18:09:23.073Z,77.59
2023-01-29T18:11:53.727Z,77.81
2023-01-29T18:14:22.064Z,78.05
2023-01-29T18:16:53.040Z,77.82
2023-01-29T18:19:28.029Z,77.08
2023-01-29T18:21:56.512Z,77.68
2023-01-29T18:24:27.369Z,77.75
2023-01-29T18:26:55.871Z,77.84
2023-01-29T18:29:30.618Z,77.95
2023-01-29T18:31:58.798Z,78.07
2023-01-29T18:34:27.240Z,77.48
2023-01-29T18:36:59.249Z,77.59
2023-01-29T18:39:29.100Z,78.03
2023-01-29T18:41:57.511Z,78.25
2023-01-29T18:44:25.899Z,78.37
2023-01-29T18:46:54.434Z,78.01
2023-01-29T18:49:22.870Z,78.14
2023-01-29T18:51:52.668Z,77.95
2023-01-29T18:54:21.670Z,78.77
2023-01-29T18:57:11.114Z,78.28
2023-01-29T18:59:39.938Z,78.54
2023-01-29T19:02:11.294Z,78.30
2023-01-29T19:04:39.968Z,78.79
2023-01-29T19:07:09.940Z,77.98
2023-01-29T19:09:38.609Z,78.08
2023-01-29T19:12:08.930Z,78.19
2023-01-29T19:14:37.301Z,78.63
2023-01-29T19:17:05.790Z,78.62
2023-01-29T19:19:34.269Z,78.79
2023-01-29T19:22:04.364Z,78.54
2023-01-29T19:24:38.801Z,78.51
2023-01-29T19:27:08.596Z,78.77
2023-01-29T19:29:37.052Z,78.40
2023-01-29T19:32:05.617Z,78.77
2023-01-29T19:34:34.426Z,78.20
2023-01-29T19:37:02.808Z,78.82
2023-01-29T19:39:33.881Z,78.61
2023-01-29T19:42:02.476Z,78.82
2023-01-29T19:44:32.255Z,79.12
2023-01-29T19:47:03.868Z,78.72
2023-01-29T19:49:34.128Z,78.80
2023-01-29T19:52:02.526Z,78.68
2023-01-29T19:54:31.016Z,78.89
2023-01-29T19:56:59.771Z,78.99
2023-01-29T19:59:28.186Z,78.80
2023-01-29T20:01:58.029Z,78.83
2023-01-29T20:04:26.857Z,78.68
2023-01-29T20:06:55.526Z,79.14
2023-01-29T20:09:24.094Z,78.70
2023-01-29T20:11:52.535Z,78.89
2023-01-29T20:14:21.232Z,78.53
2023-01-29T20:16:49.716Z,79.27
2023-01-29T20:19:26.320Z,79.23
2023-01-29T20:21:54.805Z,79.10
2023-01-29T20:24:23.609Z,79.31
2023-01-29T20:26:52.190Z,80.19
2023-01-29T20:29:21.059Z,80.84
2023-01-29T20:31:55.087Z,81.12
2023-01-29T20:34:25.128Z,81.39
2023-01-29T20:36:53.560Z,80.23
2023-01-29T20:39:21.941Z,80.81
2023-01-29T20:41:52.862Z,81.38
2023-01-29T20:44:21.229Z,81.58
2023-01-29T20:46:49.699Z,81.09
2023-01-29T20:49:18.466Z,80.97
2023-01-29T20:51:50.184Z,80.64
2023-01-29T20:54:18.537Z,80.18
2023-01-29T20:56:47.615Z,79.81
2023-01-29T20:59:16.414Z,80.10
2023-01-29T21:01:45.547Z,79.32
2023-01-29T21:04:18.997Z,78.26
2023-01-29T21:06:48.943Z,78.44
2023-01-29T21:09:17.374Z,78.46
2023-01-29T21:11:46.161Z,78.67
2023-01-29T21:14:14.592Z,78.07
2023-01-29T21:16:43.029Z,78.56
2023-01-29T21:19:17.324Z,78.19
2023-01-29T21:21:45.694Z,78.21
2023-01-29T21:24:18.748Z,78.15
2023-01-29T21:26:49.126Z,78.64
2023-01-29T21:29:17.987Z,78.79
2023-01-29T21:31:46.614Z,79.42
2023-01-29T21:34:15.071Z,79.48
2023-01-29T21:36:43.490Z,79.84
2023-01-29T21:39:17.735Z,79.66
2023-01-29T21:42:07.196Z,79.96
2023-01-29T21:44:36.186Z,80.04
2023-01-29T21:47:12.415Z,80.25
2023-01-29T21:49:42.154Z,80.32
2023-01-29T21:52:11.550Z,80.13
2023-01-29T21:54:40.941Z,79.97
2023-01-29T21:57:15.029Z,80.05
2023-01-29T21:59:43.453Z,80.63
2023-01-29T22:02:16.197Z,80.66
2023-01-29T22:04:44.634Z,81.41
2023-01-29T22:07:13.943Z,81.59
2023-01-29T22:09:42.494Z,82.56
2023-01-29T22:12:12.987Z,82.84
2023-01-29T22:14:42.286Z,82.48
2023-01-29T22:17:11.038Z,81.80
2023-01-29T22:19:39.568Z,81.58
2023-01-29T22:22:10.204Z,81.06
2023-01-29T22:24:38.791Z,80.72
2023-01-29T22:27:07.377Z,80.85
2023-01-29T22:29:37.188Z,81.12
2023-01-29T22:32:06.096Z,80.90
2023-01-29T22:34:36.897Z,80.61
2023-01-29T22:37:05.275Z,80.63
2023-01-29T22:39:33.802Z,80.72
2023-01-29T22:42:02.248Z,79.38
2023-01-29T22:44:30.652Z,79.86
2023-01-29T22:47:01.055Z,79.53
2023-01-29T22:49:30.889Z,79.96
2023-01-29T22:52:11.154Z,80.31
2023-01-29T22:54:43.258Z,80.58
2023-01-29T22:57:12.070Z,79.74
2023-01-29T22:59:40.522Z,79.75
2023-01-29T23:02:10.903Z,80.27
2023-01-29T23:04:39.258Z,79.60
2023-01-29T23:07:07.622Z,79.40
2023-01-29T23:09:38.474Z,79.47
2023-01-29T23:12:09.759Z,80.07
2023-01-29T23:14:38.235Z,80.28
2023-01-29T23:17:06.658Z,79.99
2023-01-29T23:19:36.501Z,79.92
2023-01-29T23:22:05.085Z,79.45
2023-01-29T23:24:33.499Z,79.60
2023-01-29T23:27:15.655Z,79.45
2023-01-29T23:29:44.625Z,80.05
2023-01-29T23:32:20.150Z,79.93
2023-01-29T23:34:49.942Z,80.27
2023-01-29T23:37:20.434Z,80.15
2023-01-29T23:39:49.571Z,80.43
2023-01-29T23:42:17.943Z,80.12
2023-01-29T23:44:46.263Z,80.24
2023-01-29T23:47:14.695Z,80.42
2023-01-29T23:49:43.494Z,79.91
2023-01-29T23:52:13.249Z,80.17
2023-01-29T23:54:41.652Z,80.53
2023-01-29T23:57:11.884Z,79.72
2023-01-29T23:59:40.251Z,80.23
